Time;durP1;ratioP1;P1;durP2;ratioP2;P2;SDS_P1;SDS_P2;PMS_P1;PMS_P2;Temp;Humidity;BMP_temperature;BMP_pressure;BME280_temperature;BME280_humidity;BME280_pressure;Samples;Min_cycle;Max_cycle;Signal;HPM_P1;HPM_P2
2022/06/25 04:03:48;;;;;;;2.30;2.20;;;15.40;99.90;;;;;;5814612;22;20823;-76
2022/06/25 04:06:13;;;;;;;1.80;1.70;;;15.40;99.90;;;;;;4999548;28;20441;-74
2022/06/25 04:08:39;;;;;;;2.40;2.10;;;15.40;99.90;;;;;;5016765;28;20175;-74
2022/06/25 04:11:05;;;;;;;1.40;1.30;;;15.50;99.90;;;;;;5016763;28;20175;-74
2022/06/25 04:13:31;;;;;;;2.10;2.00;;;15.60;99.90;;;;;;5016520;28;20190;-74
2022/06/25 04:15:57;;;;;;;2.10;2.00;;;15.90;99.90;;;;;;5017520;28;20553;-74
2022/06/25 04:18:22;;;;;;;3.07;2.87;;;16.30;99.90;;;;;;4999048;28;20511;-74
2022/06/25 04:20:48;;;;;;;2.80;2.00;;;16.60;99.90;;;;;;5016911;28;20441;-75
2022/06/25 04:23:14;;;;;;;2.30;2.20;;;16.80;99.90;;;;;;5016764;28;20187;-76
2022/06/25 04:25:39;;;;;;;1.87;1.63;;;16.90;99.90;;;;;;5017264;28;20211;-74
2022/06/25 04:30:50;;;;;;;1.20;1.17;;;17.30;99.90;;;;;;5017141;28;20263;-74
2022/06/25 04:33:16;;;;;;;1.67;1.60;;;17.40;99.90;;;;;;5015417;28;20951;-76
2022/06/25 04:35:42;;;;;;;1.73;1.60;;;17.60;99.90;;;;;;5015983;28;20177;-76
2022/06/25 04:38:07;;;;;;;1.43;1.40;;;17.90;99.90;;;;;;4999154;28;20455;-75
2022/06/25 04:40:34;;;;;;;1.23;1.20;;;18.20;99.90;;;;;;5016775;28;20171;-75
2022/06/25 04:43:00;;;;;;;1.50;1.50;;;18.40;99.90;;;;;;5016303;28;20652;-75
2022/06/25 04:45:25;;;;;;;1.97;1.87;;;18.60;99.90;;;;;;4998869;28;20414;-74
2022/06/25 04:47:51;;;;;;;1.23;1.13;;;18.70;99.90;;;;;;5016296;28;20175;-75
2022/06/25 04:50:16;;;;;;;2.90;2.00;;;18.80;99.90;;;;;;4998661;28;20625;-75
2022/06/25 04:52:42;;;;;;;4.43;1.70;;;18.80;99.90;;;;;;5016124;28;20561;-74
2022/06/25 04:55:08;;;;;;;1.90;1.17;;;18.90;99.90;;;;;;5016500;28;20202;-75
2022/06/25 04:57:34;;;;;;;1.20;1.20;;;19.00;99.90;;;;;;5016445;28;20675;-75
2022/06/25 04:59:59;;;;;;;1.37;1.27;;;18.90;99.90;;;;;;5016375;28;20545;-76
2022/06/25 05:02:25;;;;;;;1.07;1.07;;;18.80;99.90;;;;;;5016197;28;20171;-75
2022/06/25 05:04:50;;;;;;;1.37;1.10;;;18.80;99.90;;;;;;5015690;28;20684;-75
2022/06/25 05:07:16;;;;;;;1.20;1.20;;;18.80;99.90;;;;;;5016373;28;20167;-77
2022/06/25 05:09:42;;;;;;;1.73;1.63;;;18.80;99.90;;;;;;5016150;28;20163;-75
2022/06/25 05:12:08;;;;;;;1.20;1.20;;;18.80;99.90;;;;;;4998308;28;20264;-77
2022/06/25 05:14:33;;;;;;;2.93;1.60;;;18.80;99.90;;;;;;5015912;28;20435;-75
2022/06/25 05:16:59;;;;;;;1.20;1.10;;;19.00;99.90;;;;;;5016214;28;20834;-76
2022/06/25 05:19:25;;;;;;;1.00;1.00;;;19.10;99.90;;;;;;5015541;28;20613;-75
2022/06/25 05:21:50;;;;;;;1.30;1.30;;;19.20;99.90;;;;;;5016104;28;20206;-75
2022/06/25 05:24:16;;;;;;;1.40;1.40;;;19.20;99.90;;;;;;5015666;28;20734;-76
2022/06/25 05:26:42;;;;;;;1.57;1.50;;;19.20;99.90;;;;;;5016106;28;20173;-77
2022/06/25 05:29:07;;;;;;;1.30;1.30;;;19.20;99.90;;;;;;5016280;28;20803;-75
2022/06/25 05:31:33;;;;;;;1.27;1.27;;;19.20;99.90;;;;;;5016235;28;20182;-75
2022/06/25 05:33:59;;;;;;;1.17;1.17;;;19.10;99.90;;;;;;5015472;28;20187;-76
2022/06/25 05:36:25;;;;;;;1.80;1.63;;;19.10;99.90;;;;;;5016303;28;20190;-77
2022/06/25 05:38:50;;;;;;;1.17;1.17;;;19.00;99.90;;;;;;4998442;28;20837;-77
2022/06/25 05:41:16;;;;;;;1.17;1.17;;;19.00;99.90;;;;;;4998787;28;20178;-75
2022/06/25 05:43:42;;;;;;;1.80;1.70;;;19.20;99.90;;;;;;5015853;28;20218;-75
2022/06/25 05:46:08;;;;;;;1.07;1.07;;;19.30;99.90;;;;;;5015759;28;20170;-76
2022/06/25 05:48:34;;;;;;;1.47;1.37;;;19.30;99.90;;;;;;4997541;28;20957;-75
2022/06/25 05:51:00;;;;;;;1.27;1.20;;;19.40;99.90;;;;;;5015579;28;20645;-76
2022/06/25 05:53:28;;;;;;;1.10;1.10;;;19.50;99.90;;;;;;5014874;28;20791;-75
2022/06/25 05:55:54;;;;;;;0.93;0.93;;;19.60;99.90;;;;;;5015575;28;20421;-76
2022/06/25 05:58:21;;;;;;;1.00;1.00;;;19.70;99.90;;;;;;4998073;28;20458;-77
2022/06/25 06:00:47;;;;;;;1.43;1.43;;;19.90;99.90;;;;;;5014944;28;20451;-75
2022/06/25 06:03:12;;;;;;;1.37;1.27;;;20.00;99.90;;;;;;4997069;28;20426;-77
2022/06/25 06:05:38;;;;;;;1.50;1.40;;;20.10;99.90;;;;;;5015113;28;20695;-77
2022/06/25 06:08:08;;;;;;;2.03;1.93;;;20.20;99.90;;;;;;5015268;28;20167;-75
2022/06/25 06:10:35;;;;;;;1.13;1.13;;;20.40;99.90;;;;;;5014739;28;20428;-77
2022/06/25 06:13:00;;;;;;;1.13;1.13;;;20.50;99.90;;;;;;5016651;28;20384;-74
2022/06/25 06:15:26;;;;;;;1.20;1.20;;;20.50;99.90;;;;;;5015415;28;20392;-75
2022/06/25 06:17:52;;;;;;;1.17;1.07;;;20.50;99.90;;;;;;5014362;28;20210;-73
2022/06/25 06:20:17;;;;;;;1.20;1.10;;;20.60;99.90;;;;;;4998561;28;20211;-73
2022/06/25 06:22:43;;;;;;;1.00;1.00;;;20.70;99.90;;;;;;5015060;28;20201;-73
2022/06/25 06:25:09;;;;;;;1.20;1.20;;;20.70;99.90;;;;;;5014717;28;20687;-73
2022/06/25 06:27:35;;;;;;;1.67;1.10;;;20.70;99.90;;;;;;5014625;28;20163;-69
2022/06/25 06:30:00;;;;;;;1.40;1.30;;;20.70;99.90;;;;;;5014681;28;20413;-71
2022/06/25 06:32:26;;;;;;;2.13;1.43;;;20.70;99.90;;;;;;5014174;28;20780;-75
2022/06/25 06:34:52;;;;;;;1.60;1.50;;;20.70;99.90;;;;;;5014602;28;20241;-71
2022/06/25 06:37:18;;;;;;;1.50;1.40;;;20.80;99.90;;;;;;5014255;28;20398;-70
2022/06/25 06:39:43;;;;;;;2.27;1.40;;;20.90;99.90;;;;;;5014316;28;20974;-70
2022/06/25 06:42:09;;;;;;;1.40;1.30;;;20.90;99.90;;;;;;5014080;28;20257;-72
2022/06/25 06:44:35;;;;;;;0.90;0.90;;;21.00;99.90;;;;;;5014272;28;20522;-71
2022/06/25 06:47:00;;;;;;;1.00;1.00;;;21.10;99.90;;;;;;5014348;28;20190;-73
2022/06/25 06:49:26;;;;;;;2.30;1.20;;;21.20;99.90;;;;;;5014360;28;20171;-72
2022/06/25 06:51:52;;;;;;;1.20;1.20;;;21.20;99.90;;;;;;5014364;28;20171;-73
2022/06/25 06:54:17;;;;;;;1.30;1.03;;;21.30;99.90;;;;;;5013770;28;20190;-70
2022/06/25 06:56:43;;;;;;;1.53;1.43;;;21.40;99.90;;;;;;5014218;28;20186;-71
2022/06/25 06:59:09;;;;;;;2.13;0.90;;;21.50;99.90;;;;;;5014036;28;20199;-71
2022/06/25 07:01:34;;;;;;;1.17;1.10;;;21.70;99.90;;;;;;5013983;28;20167;-72
2022/06/25 07:04:00;;;;;;;0.90;0.90;;;21.70;99.90;;;;;;5013588;28;20410;-71
2022/06/25 07:06:26;;;;;;;1.13;1.03;;;21.80;99.90;;;;;;5013812;28;20185;-70
2022/06/25 07:08:51;;;;;;;1.17;1.17;;;21.90;99.90;;;;;;5013930;28;20163;-74
2022/06/25 07:11:29;;;;;;;1.20;1.20;;;21.90;99.90;;;;;;4996183;28;20183;-71
2022/06/25 07:14:04;;;;;;;2.73;1.20;;;21.90;99.90;;;;;;5013534;28;20197;-72
2022/06/25 07:16:31;;;;;;;1.90;1.23;;;22.00;99.90;;;;;;5013214;28;20929;-73
2022/06/25 07:18:58;;;;;;;1.70;1.60;;;22.10;99.90;;;;;;4995698;28;20453;-69
2022/06/25 07:21:24;;;;;;;1.53;1.43;;;22.30;99.90;;;;;;5013727;28;20409;-72
2022/06/25 07:23:51;;;;;;;1.40;1.17;;;22.60;99.90;;;;;;5013126;28;20780;-74
2022/06/25 07:26:17;;;;;;;1.27;1.27;;;22.80;99.90;;;;;;5014103;28;20764;-71
2022/06/25 07:28:42;;;;;;;1.23;1.23;;;23.10;99.90;;;;;;5012802;28;20406;-75
2022/06/25 07:31:08;;;;;;;1.27;1.17;;;23.50;99.90;;;;;;5013586;28;20488;-72
2022/06/25 07:33:34;;;;;;;4.50;3.70;;;24.10;99.90;;;;;;5013221;28;20188;-71
2022/06/25 07:36:00;;;;;;;1.80;1.70;;;24.70;99.90;;;;;;4995964;28;20253;-77
2022/06/25 07:38:26;;;;;;;1.40;1.30;;;25.60;99.90;;;;;;5013336;28;20222;-71
2022/06/25 07:40:51;;;;;;;1.20;1.10;;;26.30;99.90;;;;;;5013644;28;20804;-72
2022/06/25 07:43:17;;;;;;;1.33;1.23;;;27.00;98.60;;;;;;5013262;28;20189;-71
2022/06/25 07:45:43;;;;;;;1.60;1.50;;;27.90;98.70;;;;;;4995654;28;20175;-71
2022/06/25 07:48:09;;;;;;;3.03;1.63;;;28.90;97.60;;;;;;5013194;28;20887;-73
2022/06/25 07:53:19;;;;;;;1.30;1.27;;;30.80;90.40;;;;;;5013185;28;20547;-72
2022/06/25 07:55:45;;;;;;;1.77;1.67;;;31.30;92.00;;;;;;5013384;28;20965;-72
2022/06/25 07:58:10;;;;;;;1.57;1.47;;;31.80;91.10;;;;;;5013332;28;20163;-70
2022/06/25 08:00:36;;;;;;;1.57;1.47;;;32.50;88.90;;;;;;4995036;28;20179;-72
2022/06/25 08:03:02;;;;;;;1.70;1.60;;;32.90;84.70;;;;;;5012989;28;20175;-72
2022/06/25 08:05:28;;;;;;;1.20;1.10;;;32.80;87.20;;;;;;5013311;28;20596;-71
2022/06/25 08:07:54;;;;;;;1.83;1.73;;;33.00;85.80;;;;;;5013257;28;20537;-72
2022/06/25 08:10:21;;;;;;;1.90;1.50;;;33.70;86.90;;;;;;4995851;28;20422;-72
2022/06/25 08:12:47;;;;;;;1.73;1.60;;;34.10;80.90;;;;;;5013026;28;20421;-71
2022/06/25 08:15:13;;;;;;;2.23;1.60;;;34.20;74.30;;;;;;5012337;28;20532;-71
2022/06/25 08:17:39;;;;;;;1.40;1.40;;;33.40;78.30;;;;;;4995524;28;20641;-70
2022/06/25 08:20:05;;;;;;;1.67;1.60;;;33.70;77.80;;;;;;5012864;28;20206;-71
2022/06/25 08:22:30;;;;;;;1.50;1.50;;;33.20;76.70;;;;;;5012562;28;20175;-71
2022/06/25 08:24:56;;;;;;;1.17;1.17;;;32.70;78.90;;;;;;5013101;28;20462;-71
2022/06/25 08:27:22;;;;;;;2.13;1.80;;;33.00;83.10;;;;;;4995625;28;20179;-70
2022/06/25 08:29:49;;;;;;;1.73;1.63;;;33.20;81.40;;;;;;5012624;28;20194;-70
2022/06/25 08:32:15;;;;;;;1.53;1.43;;;32.90;81.10;;;;;;5012648;28;20724;-71
2022/06/25 08:34:40;;;;;;;1.40;1.30;;;33.00;85.00;;;;;;5012873;28;20926;-70
2022/06/25 08:37:06;;;;;;;7.27;1.93;;;33.00;76.60;;;;;;5012975;28;20398;-70
2022/06/25 08:39:32;;;;;;;1.73;1.53;;;32.70;81.50;;;;;;5012950;28;20246;-70
2022/06/25 08:42:01;;;;;;;1.80;1.70;;;32.90;78.60;;;;;;5016705;28;20178;-70
2022/06/25 08:44:28;;;;;;;2.10;2.00;;;33.60;78.20;;;;;;5015992;28;20195;-70
2022/06/25 08:46:56;;;;;;;2.60;2.50;;;34.30;79.20;;;;;;5016486;28;20424;-71
2022/06/25 08:49:23;;;;;;;1.80;1.70;;;35.20;76.60;;;;;;5016422;28;20469;-71
2022/06/25 08:51:51;;;;;;;2.57;2.47;;;35.90;72.40;;;;;;4998923;28;20751;-70
2022/06/25 08:54:17;;;;;;;2.13;2.03;;;36.50;73.10;;;;;;5015992;28;20422;-71
2022/06/25 08:56:42;;;;;;;1.60;1.60;;;37.10;70.70;;;;;;5016236;28;20815;-71
2022/06/25 08:59:08;;;;;;;2.73;1.80;;;37.70;66.30;;;;;;5015744;28;20182;-71
2022/06/25 09:01:34;;;;;;;1.90;1.80;;;38.30;63.90;;;;;;5016205;28;20724;-70
2022/06/25 09:03:59;;;;;;;2.10;2.00;;;38.60;61.10;;;;;;5015700;28;20230;-70
2022/06/25 09:06:26;;;;;;;1.90;1.90;;;39.10;61.00;;;;;;5015895;28;20194;-71
2022/06/25 09:09:09;;;;;;;2.00;1.90;;;39.80;59.10;;;;;;5015844;28;20275;-71
2022/06/25 09:11:56;;;;;;;2.10;2.00;;;39.90;58.00;;;;;;5015780;28;20405;-70
2022/06/25 09:14:24;;;;;;;2.40;2.30;;;38.90;59.00;;;;;;5014889;28;21022;-70
2022/06/25 09:16:58;;;;;;;2.20;2.10;;;37.40;60.00;;;;;;5015857;28;20402;-70
2022/06/25 09:19:38;;;;;;;1.90;1.80;;;35.80;62.90;;;;;;5015880;28;20452;-71
2022/06/25 09:22:08;;;;;;;2.43;2.23;;;34.50;67.20;;;;;;4998017;28;20987;-72
2022/06/25 09:24:57;;;;;;;1.93;1.83;;;33.80;70.50;;;;;;5015280;28;20568;-71
2022/06/25 09:27:38;;;;;;;2.00;1.90;;;33.90;72.30;;;;;;5015401;28;20396;-70
2022/06/25 09:30:17;;;;;;;1.57;1.47;;;34.10;68.00;;;;;;5015430;28;20450;-70
2022/06/25 09:32:57;;;;;;;1.80;1.70;;;34.30;68.30;;;;;;5014980;28;20375;-70
2022/06/25 09:35:37;;;;;;;1.30;1.30;;;33.90;68.50;;;;;;5015554;28;20402;-70
2022/06/25 09:38:12;;;;;;;2.20;2.00;;;33.10;65.60;;;;;;5015306;28;20406;-70
2022/06/25 09:40:39;;;;;;;1.77;1.67;;;32.00;70.50;;;;;;5015648;28;20744;-70
2022/06/25 09:43:13;;;;;;;2.90;2.03;;;31.60;71.60;;;;;;4996738;28;20408;-71
2022/06/25 09:45:41;;;;;;;1.50;1.50;;;31.40;73.50;;;;;;5015162;28;20446;-72
2022/06/25 09:48:18;;;;;;;1.70;1.60;;;31.70;70.60;;;;;;5015321;28;20742;-70
2022/06/25 09:50:44;;;;;;;1.87;1.53;;;32.40;67.40;;;;;;5015299;28;20375;-70
2022/06/25 09:53:10;;;;;;;1.63;1.53;;;33.00;66.60;;;;;;5013885;28;20508;-71
2022/06/25 09:55:39;;;;;;;2.43;1.50;;;33.80;68.90;;;;;;5015526;28;20518;-70
2022/06/25 09:58:05;;;;;;;1.83;1.73;;;34.50;67.20;;;;;;5014689;28;20246;-70
2022/06/25 10:00:32;;;;;;;2.00;1.90;;;34.40;62.70;;;;;;5014819;28;20410;-70
2022/06/25 10:02:59;;;;;;;3.63;3.43;;;33.80;67.10;;;;;;5014497;28;20442;-71
2022/06/25 10:05:37;;;;;;;3.67;3.37;;;33.80;68.50;;;;;;5015252;28;20484;-71
2022/06/25 10:08:07;;;;;;;2.10;1.90;;;34.40;69.80;;;;;;5014788;28;20450;-70
2022/06/25 10:10:48;;;;;;;2.00;1.80;;;35.20;60.00;;;;;;5015058;28;20430;-71
2022/06/25 10:13:15;;;;;;;1.73;1.63;;;35.80;59.80;;;;;;5013970;28;20522;-70
2022/06/25 10:15:40;;;;;;;1.50;1.50;;;36.60;59.30;;;;;;5014694;28;20475;-69
2022/06/25 10:18:09;;;;;;;1.77;1.67;;;37.00;56.80;;;;;;5014152;28;20809;-72
2022/06/25 10:20:36;;;;;;;1.80;1.70;;;37.30;57.50;;;;;;5014339;28;20183;-71
2022/06/25 10:23:04;;;;;;;3.07;1.70;;;37.50;58.80;;;;;;5014291;28;20388;-70
2022/06/25 10:25:30;;;;;;;1.70;1.60;;;37.80;58.90;;;;;;4996938;28;20431;-69
2022/06/25 10:28:16;;;;;;;1.50;1.50;;;38.10;58.10;;;;;;5014397;28;20812;-69
2022/06/25 10:30:53;;;;;;;1.80;1.70;;;36.90;57.60;;;;;;5012617;28;20461;-70
2022/06/25 10:33:29;;;;;;;2.07;1.97;;;35.60;58.90;;;;;;4996270;28;20422;-69
2022/06/25 10:35:58;;;;;;;1.73;1.63;;;34.70;60.10;;;;;;5014607;28;20373;-69
2022/06/25 10:38:25;;;;;;;1.67;1.60;;;34.30;61.50;;;;;;5014503;28;20372;-70
2022/06/25 10:40:56;;;;;;;1.67;1.57;;;34.50;62.50;;;;;;5014487;28;20402;-69
2022/06/25 10:43:46;;;;;;;1.50;1.40;;;34.40;63.10;;;;;;4995518;28;20441;-69
2022/06/25 10:46:44;;;;;;;1.53;1.53;;;34.60;60.90;;;;;;5014284;28;20407;-68
2022/06/25 10:49:10;;;;;;;2.17;1.77;;;34.70;58.60;;;;;;4971070;28;20598;-68
2022/06/25 10:51:38;;;;;;;2.17;1.87;;;34.10;59.70;;;;;;5013750;28;20432;-69
2022/06/25 10:54:06;;;;;;;1.70;1.60;;;33.50;59.70;;;;;;5013417;28;20442;-69
2022/06/25 10:56:44;;;;;;;1.70;1.60;;;33.30;60.00;;;;;;5014642;28;20784;-69
2022/06/25 10:59:14;;;;;;;2.17;2.07;;;33.40;60.10;;;;;;5013936;28;20421;-69
2022/06/25 11:01:39;;;;;;;1.73;1.63;;;33.60;60.00;;;;;;5013860;28;20421;-69
2022/06/25 11:04:07;;;;;;;1.90;1.80;;;33.80;59.30;;;;;;4995750;28;20405;-70
2022/06/25 11:06:35;;;;;;;1.97;1.80;;;33.70;59.10;;;;;;5014150;28;20573;-69
2022/06/25 11:09:15;;;;;;;1.90;1.80;;;33.70;61.80;;;;;;5013617;28;20560;-69
2022/06/25 11:11:46;;;;;;;3.53;1.70;;;33.70;59.70;;;;;;4995565;28;20445;-69
2022/06/25 11:14:14;;;;;;;1.80;1.40;;;33.50;59.30;;;;;;5013260;28;20420;-70
2022/06/25 11:16:40;;;;;;;3.17;1.90;;;33.20;59.70;;;;;;5013833;28;20492;-68
2022/06/25 11:19:06;;;;;;;1.87;1.77;;;32.40;59.80;;;;;;5013394;28;20512;-69
2022/06/25 11:21:38;;;;;;;1.50;1.40;;;31.50;59.80;;;;;;4995640;28;20174;-69
2022/06/25 11:24:18;;;;;;;1.80;1.70;;;30.80;61.60;;;;;;5013232;28;20429;-69
2022/06/25 11:29:49;;;;;;;1.87;1.77;;;29.50;66.40;;;;;;4972152;28;20520;-71
2022/06/25 11:32:20;;;;;;;1.80;1.70;;;28.90;66.70;;;;;;4972194;28;20431;-70
2022/06/25 11:34:54;;;;;;;1.90;1.80;;;28.30;69.20;;;;;;4972389;28;20475;-70
2022/06/25 11:37:20;;;;;;;1.87;1.77;;;27.90;69.60;;;;;;4972488;28;20385;-70
2022/06/25 11:39:48;;;;;;;2.73;2.53;;;27.40;74.20;;;;;;4972205;28;20447;-70
2022/06/25 11:42:15;;;;;;;2.03;1.90;;;26.80;73.90;;;;;;4971681;28;20477;-69
2022/06/25 11:44:51;;;;;;;1.70;1.40;;;26.50;77.20;;;;;;4956117;28;20445;-69
2022/06/25 11:47:25;;;;;;;1.60;1.50;;;26.20;76.00;;;;;;4972126;28;20959;-69
2022/06/25 11:49:51;;;;;;;1.90;1.53;;;26.20;73.60;;;;;;4972014;28;20458;-69
2022/06/25 11:52:19;;;;;;;1.50;1.40;;;26.20;73.40;;;;;;4972086;28;20419;-71
2022/06/25 11:54:46;;;;;;;1.50;1.40;;;26.30;76.60;;;;;;4972382;28;20480;-70
2022/06/25 11:57:26;;;;;;;1.80;1.50;;;26.50;75.30;;;;;;4983880;28;20429;-69
2022/06/25 11:59:53;;;;;;;2.00;1.90;;;26.60;73.90;;;;;;5011532;28;20508;-70
2022/06/25 12:02:21;;;;;;;1.93;1.83;;;26.70;75.10;;;;;;5012686;28;20429;-69
2022/06/25 12:04:55;;;;;;;1.57;1.47;;;26.70;73.80;;;;;;4995557;28;20782;-70
2022/06/25 12:07:22;;;;;;;1.30;1.20;;;26.80;69.30;;;;;;4995764;28;20462;-68
2022/06/25 12:09:49;;;;;;;1.70;1.60;;;26.70;71.00;;;;;;4995593;28;20457;-69
2022/06/25 12:12:17;;;;;;;3.00;1.50;;;26.60;72.10;;;;;;4981807;28;20803;-70
2022/06/25 12:14:43;;;;;;;2.80;1.70;;;26.60;72.90;;;;;;5001064;28;20455;-71
2022/06/25 12:17:10;;;;;;;1.60;1.57;;;26.50;72.00;;;;;;5017190;28;20384;-69
2022/06/25 12:19:52;;;;;;;1.37;1.37;;;26.40;74.80;;;;;;5016749;28;20950;-69
2022/06/25 12:22:22;;;;;;;1.40;1.13;;;26.50;75.70;;;;;;4998370;28;20869;-69
2022/06/25 12:24:49;;;;;;;1.20;1.20;;;26.50;71.00;;;;;;5016995;28;20393;-70
2022/06/25 12:27:14;;;;;;;1.27;1.27;;;26.40;71.60;;;;;;5016908;28;20384;-69
2022/06/25 12:29:40;;;;;;;1.70;1.60;;;26.30;72.30;;;;;;5016502;28;20434;-69
2022/06/25 12:32:06;;;;;;;1.67;1.60;;;26.30;75.50;;;;;;5016005;28;20174;-69
2022/06/25 12:34:31;;;;;;;2.43;2.27;;;26.40;71.20;;;;;;5015807;28;20664;-72
2022/06/25 12:36:59;;;;;;;1.40;1.40;;;26.40;75.10;;;;;;5016390;28;20182;-72
2022/06/25 12:39:43;;;;;;;2.37;2.23;;;26.50;75.90;;;;;;5014987;28;20281;-70
2022/06/25 12:42:12;;;;;;;1.70;1.60;;;26.60;76.20;;;;;;5004406;28;20751;-69
2022/06/25 12:44:40;;;;;;;1.40;1.20;;;26.60;72.30;;;;;;5005667;28;20424;-69
2022/06/25 12:47:11;;;;;;;1.60;1.50;;;26.60;71.80;;;;;;4979651;28;20414;-69
2022/06/25 12:49:48;;;;;;;1.37;1.37;;;26.60;71.30;;;;;;4981040;28;20454;-71
2022/06/25 12:52:17;;;;;;;1.50;1.40;;;26.60;71.20;;;;;;5015963;28;20424;-69
2022/06/25 12:54:51;;;;;;;1.63;1.53;;;26.60;71.90;;;;;;5016256;28;20754;-68
2022/06/25 12:57:18;;;;;;;1.67;1.57;;;26.70;71.70;;;;;;5016165;28;20414;-69
2022/06/25 12:59:45;;;;;;;1.87;1.77;;;26.70;70.40;;;;;;5016620;28;20532;-70
2022/06/25 13:02:11;;;;;;;1.37;1.23;;;26.70;71.30;;;;;;5016118;28;20406;-70
2022/06/25 13:04:36;;;;;;;1.60;1.50;;;26.80;71.50;;;;;;5015925;28;20490;-70
2022/06/25 13:07:02;;;;;;;1.30;1.30;;;26.80;70.60;;;;;;5015783;28;20198;-68
2022/06/25 13:09:28;;;;;;;1.63;1.40;;;26.70;70.10;;;;;;5016329;28;20285;-69
2022/06/25 13:11:53;;;;;;;1.63;1.53;;;26.70;69.70;;;;;;5016068;28;20167;-69
2022/06/25 13:14:19;;;;;;;1.70;1.60;;;26.70;70.00;;;;;;5015111;28;20221;-69
2022/06/25 13:16:44;;;;;;;1.50;1.40;;;26.60;70.40;;;;;;5015884;28;20210;-68
2022/06/25 13:19:10;;;;;;;1.47;1.47;;;26.50;71.20;;;;;;5015739;28;20202;-69
2022/06/25 13:21:36;;;;;;;1.60;1.50;;;26.50;70.70;;;;;;5015770;28;20174;-68
2022/06/25 13:24:02;;;;;;;3.23;1.60;;;26.50;72.60;;;;;;5015145;28;20187;-68
2022/06/25 13:26:27;;;;;;;1.80;1.40;;;26.50;71.80;;;;;;5015701;28;20209;-68
2022/06/25 13:28:53;;;;;;;1.10;1.10;;;26.50;72.60;;;;;;5015659;28;20203;-69
2022/06/25 13:31:18;;;;;;;1.77;1.67;;;26.50;72.30;;;;;;5015685;28;20178;-69
2022/06/25 13:33:44;;;;;;;1.43;1.33;;;26.50;71.40;;;;;;5014687;28;20282;-68
2022/06/25 13:36:10;;;;;;;1.23;1.23;;;26.50;72.20;;;;;;5015094;28;20206;-68
2022/06/25 13:38:36;;;;;;;1.23;1.23;;;26.50;71.80;;;;;;5015620;28;20198;-69
2022/06/25 13:41:01;;;;;;;1.70;1.60;;;26.50;72.60;;;;;;5015526;28;20309;-69
2022/06/25 13:43:27;;;;;;;1.63;1.10;;;26.50;70.30;;;;;;5014788;28;20504;-68
2022/06/25 13:45:53;;;;;;;1.40;1.30;;;26.60;70.90;;;;;;5015056;28;20214;-68
2022/06/25 13:48:18;;;;;;;1.10;1.10;;;26.60;70.40;;;;;;5015476;28;20195;-68
2022/06/25 13:50:44;;;;;;;1.47;1.37;;;26.70;71.00;;;;;;5015471;28;20170;-69
2022/06/25 13:53:11;;;;;;;1.30;1.20;;;26.70;71.50;;;;;;5014278;28;20576;-68
2022/06/25 13:55:37;;;;;;;1.73;1.63;;;26.90;70.10;;;;;;5014975;28;20253;-68
2022/06/25 13:58:02;;;;;;;2.00;1.50;;;26.90;69.60;;;;;;5015355;28;20798;-69
2022/06/25 14:00:28;;;;;;;1.13;1.13;;;27.00;69.20;;;;;;5015033;28;20496;-68
2022/06/25 14:02:54;;;;;;;1.27;1.20;;;27.00;69.90;;;;;;5014371;28;20541;-68
2022/06/25 14:05:20;;;;;;;1.30;1.30;;;27.00;70.00;;;;;;5014881;28;20437;-70
2022/06/25 14:07:46;;;;;;;1.83;1.73;;;27.00;70.30;;;;;;5014748;28;20171;-69
2022/06/25 14:10:14;;;;;;;1.40;1.40;;;27.00;69.70;;;;;;5014891;28;20688;-69
2022/06/25 14:12:40;;;;;;;1.53;1.43;;;27.00;70.60;;;;;;5012559;28;20541;-67
2022/06/25 14:15:06;;;;;;;1.50;1.40;;;27.00;69.20;;;;;;4995239;28;20423;-67
2022/06/25 14:17:32;;;;;;;1.70;1.60;;;27.10;69.10;;;;;;5013154;28;20449;-69
2022/06/25 14:19:57;;;;;;;1.80;1.70;;;27.00;69.60;;;;;;5014330;28;20736;-69
2022/06/25 14:22:23;;;;;;;1.97;1.47;;;27.00;69.10;;;;;;5014430;28;20645;-69
2022/06/25 14:27:33;;;;;;;2.20;1.90;;;27.10;69.90;;;;;;5014308;28;20553;-68
2022/06/25 14:29:59;;;;;;;2.10;1.60;;;27.20;69.60;;;;;;5014266;28;20472;-68
2022/06/25 14:32:24;;;;;;;1.87;1.77;;;27.10;68.70;;;;;;5013870;28;20488;-68
2022/06/25 14:34:50;;;;;;;1.43;1.40;;;27.00;71.30;;;;;;5014348;28;20194;-69
2022/06/25 14:42:44;;;;;;;1.87;1.77;;;27.30;70.00;;;;;;5013957;28;20469;-69
2022/06/25 14:45:10;;;;;;;1.53;1.43;;;27.30;70.50;;;;;;5013778;28;20428;-70
2022/06/25 14:47:35;;;;;;;1.50;1.40;;;27.40;69.70;;;;;;5013439;28;20631;-69
2022/06/25 14:50:01;;;;;;;1.40;1.30;;;27.40;69.80;;;;;;4996437;28;20203;-68
2022/06/25 14:52:27;;;;;;;1.23;1.13;;;27.50;68.50;;;;;;4996225;28;20241;-69
2022/06/25 14:54:52;;;;;;;1.40;1.30;;;27.50;67.60;;;;;;5014243;28;20547;-69
2022/06/25 14:57:18;;;;;;;1.33;1.27;;;27.50;68.60;;;;;;5013818;28;20222;-69
2022/06/25 14:59:44;;;;;;;1.40;1.30;;;27.40;68.70;;;;;;5014107;28;20638;-70
2022/06/25 15:02:10;;;;;;;1.77;1.40;;;27.40;69.20;;;;;;5013855;28;20170;-69
2022/06/25 15:04:35;;;;;;;1.80;1.70;;;27.50;68.70;;;;;;5013705;28;20508;-69
2022/06/25 15:07:01;;;;;;;1.47;1.37;;;27.40;69.50;;;;;;5013693;28;20233;-69
2022/06/25 15:09:26;;;;;;;1.87;1.50;;;27.40;70.00;;;;;;4996000;28;20280;-69
2022/06/25 15:11:52;;;;;;;1.60;1.50;;;27.40;70.10;;;;;;5014068;28;20207;-68
2022/06/25 15:14:18;;;;;;;1.53;1.53;;;27.50;70.30;;;;;;5013158;28;20275;-69
2022/06/25 15:16:43;;;;;;;1.53;1.43;;;27.60;70.20;;;;;;5013196;28;20182;-68
2022/06/25 15:19:09;;;;;;;1.53;1.50;;;27.50;69.10;;;;;;5013595;28;20218;-68
2022/06/25 15:21:35;;;;;;;1.70;1.60;;;27.50;69.00;;;;;;5014137;28;20565;-69
2022/06/25 15:24:00;;;;;;;1.57;1.47;;;27.30;69.50;;;;;;5013434;28;20195;-68
2022/06/25 15:26:26;;;;;;;1.50;1.40;;;27.10;70.20;;;;;;4995876;28;20711;-67
2022/06/25 15:28:51;;;;;;;1.30;1.30;;;27.00;69.80;;;;;;5013577;28;20209;-67
2022/06/25 15:31:17;;;;;;;1.57;1.50;;;26.90;68.80;;;;;;5013251;28;20510;-69
2022/06/25 15:33:43;;;;;;;3.20;3.00;;;26.80;68.80;;;;;;5012788;28;20653;-69
2022/06/25 15:36:08;;;;;;;2.00;1.90;;;26.60;69.70;;;;;;5013678;28;20170;-69
2022/06/25 15:38:34;;;;;;;3.20;3.00;;;26.50;69.90;;;;;;5013676;28;20645;-70
2022/06/25 15:41:00;;;;;;;2.27;2.17;;;26.50;70.40;;;;;;5013514;28;20261;-69
2022/06/25 15:43:25;;;;;;;1.70;1.60;;;26.50;70.50;;;;;;5012441;28;20245;-68
2022/06/25 15:45:51;;;;;;;2.50;2.30;;;26.60;70.70;;;;;;4999638;28;20179;-69
2022/06/25 15:48:17;;;;;;;1.90;1.80;;;26.60;71.30;;;;;;5012964;28;20239;-69
2022/06/25 15:50:43;;;;;;;1.50;1.40;;;26.60;71.60;;;;;;5015493;28;20416;-69
2022/06/25 15:53:09;;;;;;;1.60;1.50;;;26.60;72.10;;;;;;5016964;28;20171;-68
2022/06/25 15:55:35;;;;;;;1.70;1.60;;;26.70;71.90;;;;;;5017190;28;20518;-69
2022/06/25 15:58:00;;;;;;;3.10;2.80;;;26.70;71.30;;;;;;5017203;28;20406;-69
2022/06/25 16:00:27;;;;;;;2.50;2.17;;;26.70;71.50;;;;;;5017202;28;20628;-70
2022/06/25 16:02:54;;;;;;;2.67;2.57;;;26.80;71.80;;;;;;5016616;28;20221;-68
2022/06/25 16:05:19;;;;;;;1.70;1.60;;;26.70;71.30;;;;;;5016790;28;20470;-70
2022/06/25 16:07:45;;;;;;;1.70;1.60;;;26.80;71.90;;;;;;5017360;28;20380;-69
2022/06/25 16:10:11;;;;;;;1.53;1.43;;;26.80;70.80;;;;;;5017283;28;20206;-69
2022/06/25 16:12:36;;;;;;;2.23;2.13;;;26.80;70.30;;;;;;5016993;28;20230;-68
2022/06/25 16:15:03;;;;;;;1.80;1.70;;;26.80;70.90;;;;;;5016600;28;20203;-69
2022/06/25 16:17:30;;;;;;;67.20;61.93;;;26.60;70.90;;;;;;4999554;28;20179;-69
2022/06/25 16:19:55;;;;;;;18.70;16.87;;;26.60;70.80;;;;;;5016657;28;20425;-69
2022/06/25 16:22:22;;;;;;;3.33;2.37;;;26.70;70.80;;;;;;5016713;28;20396;-69
2022/06/25 16:24:47;;;;;;;2.00;1.73;;;26.70;71.00;;;;;;4998325;28;20203;-68
2022/06/25 16:27:13;;;;;;;1.40;1.33;;;26.60;72.70;;;;;;5017034;28;20848;-70
2022/06/25 16:29:38;;;;;;;1.30;1.30;;;26.60;71.50;;;;;;5016764;28;20214;-68
2022/06/25 16:32:06;;;;;;;1.60;1.50;;;26.60;71.90;;;;;;5016462;28;20175;-68
2022/06/25 16:34:32;;;;;;;1.80;1.70;;;26.60;72.90;;;;;;5015902;28;20195;-68
2022/06/25 16:36:57;;;;;;;1.70;1.60;;;26.60;72.90;;;;;;5016933;28;20406;-68
2022/06/25 16:39:23;;;;;;;2.20;2.10;;;26.60;73.50;;;;;;5016787;28;20450;-68
2022/06/25 16:41:49;;;;;;;1.50;1.50;;;26.60;74.10;;;;;;5016456;28;20182;-68
2022/06/25 16:44:15;;;;;;;1.67;1.57;;;26.60;74.00;;;;;;5015877;28;20202;-68
2022/06/25 16:46:46;;;;;;;1.60;1.50;;;26.60;71.90;;;;;;5016488;28;20507;-67
2022/06/25 16:49:17;;;;;;;1.70;1.60;;;26.50;72.80;;;;;;5015893;28;20191;-68
2022/06/25 16:51:45;;;;;;;1.60;1.50;;;26.50;73.10;;;;;;4998873;28;20497;-68
2022/06/25 16:54:13;;;;;;;1.47;1.37;;;26.50;73.50;;;;;;5015602;28;20444;-69
2022/06/25 16:56:39;;;;;;;1.77;1.67;;;26.50;73.60;;;;;;5015977;28;20886;-68
2022/06/25 16:59:05;;;;;;;2.00;1.63;;;26.50;74.10;;;;;;5016439;28;20437;-69
2022/06/25 17:01:31;;;;;;;1.30;1.30;;;26.60;73.70;;;;;;5015904;28;20384;-68
2022/06/25 17:03:58;;;;;;;1.50;1.40;;;26.50;74.00;;;;;;5015256;28;20967;-69
2022/06/25 17:06:25;;;;;;;1.83;1.70;;;26.50;74.10;;;;;;4998282;28;20424;-69